Roswell, South Dakota
Current Conditions -  °F | °C
As of 6:15 AM on Friday 28 Nov 2014 (Local Time) from KMDS Reporting Station
Clear Clear  
Wind Chill:   Ceiling: Unl
Heat Index: 16°   Visibility: 10mi
Dew Point: 16°   Wind: 6mph
Humidity: 100%   Direction: 130°SE
Pressure: 29.81"   Gusts: NA
Location:  44.0529°N, 97.5161°W
Report Text: KMDS 281215Z AUTO 13005KT 10SM CLR M09/M09 A2981 RMK AO2
Loading
Personal Weather Stations






























Interactive Weather Map New forecast layout! Learn more

10-Day Weather Forecast

Advertisements
Track Severe Weather on mobile